sensor_id;sensor_type;location;lat;lon;timestamp;temperature;humidity
16513;DHT22;8369;48.030;11.598;2023-02-28T00:01:03;-2.10;99.90
16513;DHT22;8369;48.030;11.598;2023-02-28T00:03:29;-2.10;99.90
16513;DHT22;8369;48.030;11.598;2023-02-28T00:05:54;-2.20;99.90
16513;DHT22;8369;48.030;11.598;2023-02-28T00:08:20;-2.20;99.90
16513;DHT22;8369;48.030;11.598;2023-02-28T00:10:46;-2.20;99.90
16513;DHT22;8369;48.030;11.598;2023-02-28T00:13:12;-2.30;99.90
16513;DHT22;8369;48.030;11.598;2023-02-28T00:15:38;-2.30;99.90
16513;DHT22;8369;48.030;11.598;2023-02-28T00:18:04;-2.30;99.90
16513;DHT22;8369;48.030;11.598;2023-02-28T00:20:30;-2.30;99.90
16513;DHT22;8369;48.030;11.598;2023-02-28T00:22:56;-2.30;99.90
16513;DHT22;8369;48.030;11.598;2023-02-28T00:25:24;-2.40;99.90
16513;DHT22;8369;48.030;11.598;2023-02-28T00:27:50;-2.40;99.90
16513;DHT22;8369;48.030;11.598;2023-02-28T00:30:21;-2.40;99.90
16513;DHT22;8369;48.030;11.598;2023-02-28T00:32:49;-2.40;99.90
16513;DHT22;8369;48.030;11.598;2023-02-28T00:35:15;-2.40;99.90
16513;DHT22;8369;48.030;11.598;2023-02-28T00:37:42;-2.50;99.90
16513;DHT22;8369;48.030;11.598;2023-02-28T00:40:09;-2.50;99.90
16513;DHT22;8369;48.030;11.598;2023-02-28T00:42:36;-2.50;99.90
16513;DHT22;8369;48.030;11.598;2023-02-28T00:45:03;-2.50;99.90
16513;DHT22;8369;48.030;11.598;2023-02-28T00:47:32;-2.50;99.90
16513;DHT22;8369;48.030;11.598;2023-02-28T00:49:57;-2.60;99.90
16513;DHT22;8369;48.030;11.598;2023-02-28T00:52:23;-2.60;99.90
16513;DHT22;8369;48.030;11.598;2023-02-28T00:54:50;-2.60;99.90
16513;DHT22;8369;48.030;11.598;2023-02-28T00:57:16;-2.60;99.90
16513;DHT22;8369;48.030;11.598;2023-02-28T00:59:41;-2.60;99.90
16513;DHT22;8369;48.030;11.598;2023-02-28T01:02:07;-2.70;99.90
16513;DHT22;8369;48.030;11.598;2023-02-28T01:04:33;-2.70;99.90
16513;DHT22;8369;48.030;11.598;2023-02-28T01:06:59;-2.70;99.90
16513;DHT22;8369;48.030;11.598;2023-02-28T01:09:25;-2.80;99.90
16513;DHT22;8369;48.030;11.598;2023-02-28T01:11:52;-2.80;99.90
16513;DHT22;8369;48.030;11.598;2023-02-28T01:14:18;-2.80;99.90
16513;DHT22;8369;48.030;11.598;2023-02-28T01:16:44;-2.80;99.90
16513;DHT22;8369;48.030;11.598;2023-02-28T01:19:10;-2.90;99.90
16513;DHT22;8369;48.030;11.598;2023-02-28T01:21:36;-2.90;99.90
16513;DHT22;8369;48.030;11.598;2023-02-28T01:24:03;-2.90;99.90
16513;DHT22;8369;48.030;11.598;2023-02-28T01:26:29;-2.90;99.90
16513;DHT22;8369;48.030;11.598;2023-02-28T01:28:55;-2.90;99.90
16513;DHT22;8369;48.030;11.598;2023-02-28T01:31:22;-2.90;99.90
16513;DHT22;8369;48.030;11.598;2023-02-28T01:33:50;-3.00;99.90
16513;DHT22;8369;48.030;11.598;2023-02-28T01:36:20;-3.00;99.90
16513;DHT22;8369;48.030;11.598;2023-02-28T01:38:47;-3.00;99.90
16513;DHT22;8369;48.030;11.598;2023-02-28T01:41:25;-3.10;99.90
16513;DHT22;8369;48.030;11.598;2023-02-28T01:43:58;-3.10;99.90
16513;DHT22;8369;48.030;11.598;2023-02-28T01:46:24;-3.20;99.90
16513;DHT22;8369;48.030;11.598;2023-02-28T01:49:15;-3.20;99.90
16513;DHT22;8369;48.030;11.598;2023-02-28T01:51:48;-3.20;99.90
16513;DHT22;8369;48.030;11.598;2023-02-28T01:54:22;-3.30;99.90
16513;DHT22;8369;48.030;11.598;2023-02-28T01:56:56;-3.30;99.90
16513;DHT22;8369;48.030;11.598;2023-02-28T01:59:38;-3.30;99.90
16513;DHT22;8369;48.030;11.598;2023-02-28T02:02:12;-3.40;99.90
16513;DHT22;8369;48.030;11.598;2023-02-28T02:04:45;-3.40;99.90
16513;DHT22;8369;48.030;11.598;2023-02-28T02:07:14;-3.40;99.90
16513;DHT22;8369;48.030;11.598;2023-02-28T02:09:40;-3.40;99.90
16513;DHT22;8369;48.030;11.598;2023-02-28T02:12:27;-3.40;99.90
16513;DHT22;8369;48.030;11.598;2023-02-28T02:17:42;-3.50;99.90
16513;DHT22;8369;48.030;11.598;2023-02-28T02:20:32;-3.40;99.90
16513;DHT22;8369;48.030;11.598;2023-02-28T02:29:27;-3.50;99.90
16513;DHT22;8369;48.030;11.598;2023-02-28T02:40:21;-3.60;99.90
16513;DHT22;8369;48.030;11.598;2023-02-28T02:42:59;-3.70;99.90
16513;DHT22;8369;48.030;11.598;2023-02-28T02:45:56;-3.70;99.90
16513;DHT22;8369;48.030;11.598;2023-02-28T02:48:24;-3.80;99.90
16513;DHT22;8369;48.030;11.598;2023-02-28T02:50:54;-3.80;99.90
16513;DHT22;8369;48.030;11.598;2023-02-28T02:53:36;-3.80;99.90
16513;DHT22;8369;48.030;11.598;2023-02-28T02:56:05;-3.90;99.90
16513;DHT22;8369;48.030;11.598;2023-02-28T02:58:36;-3.90;99.90
16513;DHT22;8369;48.030;11.598;2023-02-28T03:01:10;-4.00;99.90
16513;DHT22;8369;48.030;11.598;2023-02-28T03:03:38;-4.00;99.90
16513;DHT22;8369;48.030;11.598;2023-02-28T03:06:04;-4.00;99.90
16513;DHT22;8369;48.030;11.598;2023-02-28T03:08:35;-4.00;99.90
16513;DHT22;8369;48.030;11.598;2023-02-28T03:11:06;-4.00;99.90
16513;DHT22;8369;48.030;11.598;2023-02-28T03:16:51;-4.10;99.90
16513;DHT22;8369;48.030;11.598;2023-02-28T03:22:52;-4.20;99.90
16513;DHT22;8369;48.030;11.598;2023-02-28T03:28:17;-4.20;99.90
16513;DHT22;8369;48.030;11.598;2023-02-28T03:30:52;-4.20;99.90
16513;DHT22;8369;48.030;11.598;2023-02-28T03:33:25;-4.20;99.90
16513;DHT22;8369;48.030;11.598;2023-02-28T03:35:55;-4.20;99.90
16513;DHT22;8369;48.030;11.598;2023-02-28T03:41:15;-4.30;99.90
16513;DHT22;8369;48.030;11.598;2023-02-28T03:43:55;-4.30;99.90
16513;DHT22;8369;48.030;11.598;2023-02-28T03:46:25;-4.30;99.90
16513;DHT22;8369;48.030;11.598;2023-02-28T03:49:07;-4.30;99.90
16513;DHT22;8369;48.030;11.598;2023-02-28T03:51:38;-4.30;99.90
16513;DHT22;8369;48.030;11.598;2023-02-28T03:54:11;-4.30;99.90
16513;DHT22;8369;48.030;11.598;2023-02-28T03:56:41;-4.30;99.90
16513;DHT22;8369;48.030;11.598;2023-02-28T03:59:33;-4.30;99.90
16513;DHT22;8369;48.030;11.598;2023-02-28T04:02:00;-4.30;99.90
16513;DHT22;8369;48.030;11.598;2023-02-28T04:04:26;-4.40;99.90
16513;DHT22;8369;48.030;11.598;2023-02-28T04:06:53;-4.40;99.90
16513;DHT22;8369;48.030;11.598;2023-02-28T04:09:26;-4.40;99.90
16513;DHT22;8369;48.030;11.598;2023-02-28T04:11:52;-4.40;99.90
16513;DHT22;8369;48.030;11.598;2023-02-28T04:14:19;-4.40;99.90
16513;DHT22;8369;48.030;11.598;2023-02-28T04:16:45;-4.50;99.90
16513;DHT22;8369;48.030;11.598;2023-02-28T04:19:12;-4.50;99.90
16513;DHT22;8369;48.030;11.598;2023-02-28T04:21:40;-4.50;99.90
16513;DHT22;8369;48.030;11.598;2023-02-28T04:24:09;-4.60;99.90
16513;DHT22;8369;48.030;11.598;2023-02-28T04:26:40;-4.60;99.90
16513;DHT22;8369;48.030;11.598;2023-02-28T04:29:10;-4.60;99.90
16513;DHT22;8369;48.030;11.598;2023-02-28T04:31:37;-4.60;99.90
16513;DHT22;8369;48.030;11.598;2023-02-28T04:34:03;-4.60;99.90
16513;DHT22;8369;48.030;11.598;2023-02-28T04:36:29;-4.60;99.90
16513;DHT22;8369;48.030;11.598;2023-02-28T04:38:56;-4.60;99.90
16513;DHT22;8369;48.030;11.598;2023-02-28T04:41:22;-4.60;99.90
16513;DHT22;8369;48.030;11.598;2023-02-28T04:43:48;-4.50;99.90
16513;DHT22;8369;48.030;11.598;2023-02-28T04:46:15;-4.50;99.90
16513;DHT22;8369;48.030;11.598;2023-02-28T04:48:40;-4.50;99.90
16513;DHT22;8369;48.030;11.598;2023-02-28T04:51:11;-4.50;99.90
16513;DHT22;8369;48.030;11.598;2023-02-28T04:53:38;-4.50;99.90
16513;DHT22;8369;48.030;11.598;2023-02-28T04:56:05;-4.50;99.90
16513;DHT22;8369;48.030;11.598;2023-02-28T04:58:32;-4.40;99.90
16513;DHT22;8369;48.030;11.598;2023-02-28T05:01:06;-4.40;99.90
16513;DHT22;8369;48.030;11.598;2023-02-28T05:03:41;-4.40;99.90
16513;DHT22;8369;48.030;11.598;2023-02-28T05:06:08;-4.40;99.90
16513;DHT22;8369;48.030;11.598;2023-02-28T05:08:34;-4.40;99.90
16513;DHT22;8369;48.030;11.598;2023-02-28T05:11:06;-4.40;99.90
16513;DHT22;8369;48.030;11.598;2023-02-28T05:13:32;-4.40;99.90
16513;DHT22;8369;48.030;11.598;2023-02-28T05:15:58;-4.30;99.90
16513;DHT22;8369;48.030;11.598;2023-02-28T05:18:24;-4.30;99.90
16513;DHT22;8369;48.030;11.598;2023-02-28T05:20:50;-4.20;99.90
16513;DHT22;8369;48.030;11.598;2023-02-28T05:23:18;-4.20;99.90
16513;DHT22;8369;48.030;11.598;2023-02-28T05:25:45;-4.20;99.90
16513;DHT22;8369;48.030;11.598;2023-02-28T05:28:11;-4.10;99.90
16513;DHT22;8369;48.030;11.598;2023-02-28T05:30:36;-4.10;99.90
16513;DHT22;8369;48.030;11.598;2023-02-28T05:33:03;-4.00;99.90
16513;DHT22;8369;48.030;11.598;2023-02-28T05:35:29;-4.00;99.90
16513;DHT22;8369;48.030;11.598;2023-02-28T05:37:55;-4.00;99.90
16513;DHT22;8369;48.030;11.598;2023-02-28T05:40:21;-3.90;99.90
16513;DHT22;8369;48.030;11.598;2023-02-28T05:42:47;-3.80;99.90
16513;DHT22;8369;48.030;11.598;2023-02-28T05:45:15;-3.80;99.90
16513;DHT22;8369;48.030;11.598;2023-02-28T05:47:41;-3.70;99.90
16513;DHT22;8369;48.030;11.598;2023-02-28T05:50:08;-3.60;99.90
16513;DHT22;8369;48.030;11.598;2023-02-28T05:52:38;-3.60;99.90
16513;DHT22;8369;48.030;11.598;2023-02-28T05:55:05;-3.50;99.90
16513;DHT22;8369;48.030;11.598;2023-02-28T05:57:31;-3.50;99.90
16513;DHT22;8369;48.030;11.598;2023-02-28T05:59:57;-3.40;99.90
16513;DHT22;8369;48.030;11.598;2023-02-28T06:02:23;-3.40;99.90
16513;DHT22;8369;48.030;11.598;2023-02-28T06:04:48;-3.30;99.90
16513;DHT22;8369;48.030;11.598;2023-02-28T06:07:14;-3.30;99.90
16513;DHT22;8369;48.030;11.598;2023-02-28T06:09:40;-3.20;99.90
16513;DHT22;8369;48.030;11.598;2023-02-28T06:12:09;-3.20;99.90
16513;DHT22;8369;48.030;11.598;2023-02-28T06:14:36;-3.10;99.90
16513;DHT22;8369;48.030;11.598;2023-02-28T06:17:03;-3.10;99.90
16513;DHT22;8369;48.030;11.598;2023-02-28T06:19:29;-3.00;99.90
16513;DHT22;8369;48.030;11.598;2023-02-28T06:21:56;-3.00;99.90
16513;DHT22;8369;48.030;11.598;2023-02-28T06:24:23;-3.00;99.90
16513;DHT22;8369;48.030;11.598;2023-02-28T06:26:50;-2.90;99.90
16513;DHT22;8369;48.030;11.598;2023-02-28T06:29:16;-2.90;99.90
16513;DHT22;8369;48.030;11.598;2023-02-28T06:31:47;-2.90;99.90
16513;DHT22;8369;48.030;11.598;2023-02-28T06:34:13;-2.80;99.90
16513;DHT22;8369;48.030;11.598;2023-02-28T06:36:41;-2.80;99.90
16513;DHT22;8369;48.030;11.598;2023-02-28T06:39:07;-2.80;99.90
16513;DHT22;8369;48.030;11.598;2023-02-28T06:41:33;-2.80;99.90
16513;DHT22;8369;48.030;11.598;2023-02-28T06:44:12;-2.70;99.90
16513;DHT22;8369;48.030;11.598;2023-02-28T06:46:42;-2.70;99.90
16513;DHT22;8369;48.030;11.598;2023-02-28T06:49:08;-2.70;99.90
16513;DHT22;8369;48.030;11.598;2023-02-28T06:51:36;-2.70;99.90
16513;DHT22;8369;48.030;11.598;2023-02-28T06:54:02;-2.60;99.90
16513;DHT22;8369;48.030;11.598;2023-02-28T06:56:28;-2.60;99.90
16513;DHT22;8369;48.030;11.598;2023-02-28T06:58:54;-2.60;99.90
16513;DHT22;8369;48.030;11.598;2023-02-28T07:01:20;-2.50;99.90
16513;DHT22;8369;48.030;11.598;2023-02-28T07:03:48;-2.50;99.90
16513;DHT22;8369;48.030;11.598;2023-02-28T07:06:18;-2.50;99.90
16513;DHT22;8369;48.030;11.598;2023-02-28T07:08:44;-2.40;99.90
16513;DHT22;8369;48.030;11.598;2023-02-28T07:11:13;-2.40;99.90
16513;DHT22;8369;48.030;11.598;2023-02-28T07:13:39;-2.40;99.90
16513;DHT22;8369;48.030;11.598;2023-02-28T07:16:08;-2.40;99.90
16513;DHT22;8369;48.030;11.598;2023-02-28T07:18:35;-2.40;99.90
16513;DHT22;8369;48.030;11.598;2023-02-28T07:21:03;-2.30;99.90
16513;DHT22;8369;48.030;11.598;2023-02-28T07:23:29;-2.30;99.90
16513;DHT22;8369;48.030;11.598;2023-02-28T07:25:55;-2.30;99.90
16513;DHT22;8369;48.030;11.598;2023-02-28T07:28:21;-2.30;99.90
16513;DHT22;8369;48.030;11.598;2023-02-28T07:30:47;-2.20;99.90
16513;DHT22;8369;48.030;11.598;2023-02-28T07:33:13;-2.20;99.90
16513;DHT22;8369;48.030;11.598;2023-02-28T07:35:42;-2.20;99.90
16513;DHT22;8369;48.030;11.598;2023-02-28T07:38:11;-2.10;99.90
16513;DHT22;8369;48.030;11.598;2023-02-28T07:40:39;-2.10;99.90
16513;DHT22;8369;48.030;11.598;2023-02-28T07:43:05;-2.10;99.90
16513;DHT22;8369;48.030;11.598;2023-02-28T07:45:31;-2.10;99.90
16513;DHT22;8369;48.030;11.598;2023-02-28T07:48:03;-2.00;99.90
16513;DHT22;8369;48.030;11.598;2023-02-28T07:50:28;-2.00;99.90
16513;DHT22;8369;48.030;11.598;2023-02-28T07:52:57;-2.00;99.90
16513;DHT22;8369;48.030;11.598;2023-02-28T07:55:23;-2.00;99.90
16513;DHT22;8369;48.030;11.598;2023-02-28T07:57:49;-1.90;99.90
16513;DHT22;8369;48.030;11.598;2023-02-28T08:00:15;-1.90;99.90
16513;DHT22;8369;48.030;11.598;2023-02-28T08:02:41;-1.90;99.90
16513;DHT22;8369;48.030;11.598;2023-02-28T08:05:07;-1.90;99.90
16513;DHT22;8369;48.030;11.598;2023-02-28T08:07:34;-1.90;99.90
16513;DHT22;8369;48.030;11.598;2023-02-28T08:10:00;-1.80;99.90
16513;DHT22;8369;48.030;11.598;2023-02-28T08:12:26;-1.90;99.90
16513;DHT22;8369;48.030;11.598;2023-02-28T08:14:52;-1.80;99.90
16513;DHT22;8369;48.030;11.598;2023-02-28T08:17:18;-1.90;99.90
16513;DHT22;8369;48.030;11.598;2023-02-28T08:19:47;-1.90;99.90
16513;DHT22;8369;48.030;11.598;2023-02-28T08:22:13;-1.80;99.90
16513;DHT22;8369;48.030;11.598;2023-02-28T08:24:41;-1.80;99.90
16513;DHT22;8369;48.030;11.598;2023-02-28T08:27:07;-1.70;99.90
16513;DHT22;8369;48.030;11.598;2023-02-28T08:29:32;-1.70;99.90
16513;DHT22;8369;48.030;11.598;2023-02-28T08:31:58;-1.70;99.90
16513;DHT22;8369;48.030;11.598;2023-02-28T08:34:24;-1.60;99.90
16513;DHT22;8369;48.030;11.598;2023-02-28T08:36:50;-1.60;99.90
16513;DHT22;8369;48.030;11.598;2023-02-28T08:39:15;-1.60;99.90
16513;DHT22;8369;48.030;11.598;2023-02-28T08:41:42;-1.50;99.90
16513;DHT22;8369;48.030;11.598;2023-02-28T08:44:08;-1.50;99.90
16513;DHT22;8369;48.030;11.598;2023-02-28T08:46:33;-1.50;99.90
16513;DHT22;8369;48.030;11.598;2023-02-28T08:48:59;-1.50;99.90
16513;DHT22;8369;48.030;11.598;2023-02-28T08:51:27;-1.50;99.90
16513;DHT22;8369;48.030;11.598;2023-02-28T08:54:03;-1.50;99.90
16513;DHT22;8369;48.030;11.598;2023-02-28T08:56:28;-1.50;99.90
16513;DHT22;8369;48.030;11.598;2023-02-28T08:58:56;-1.50;99.90
16513;DHT22;8369;48.030;11.598;2023-02-28T09:01:27;-1.50;99.90
16513;DHT22;8369;48.030;11.598;2023-02-28T09:03:54;-1.50;99.90
16513;DHT22;8369;48.030;11.598;2023-02-28T09:06:21;-1.50;99.90
16513;DHT22;8369;48.030;11.598;2023-02-28T09:08:47;-1.40;99.90
16513;DHT22;8369;48.030;11.598;2023-02-28T09:11:16;-1.40;99.90
16513;DHT22;8369;48.030;11.598;2023-02-28T09:13:42;-1.40;99.90
16513;DHT22;8369;48.030;11.598;2023-02-28T09:16:11;-1.30;99.90
16513;DHT22;8369;48.030;11.598;2023-02-28T09:18:39;-1.30;99.90
16513;DHT22;8369;48.030;11.598;2023-02-28T09:21:07;-1.20;99.90
16513;DHT22;8369;48.030;11.598;2023-02-28T09:23:33;-1.20;99.90
16513;DHT22;8369;48.030;11.598;2023-02-28T09:25:58;-1.20;99.90
16513;DHT22;8369;48.030;11.598;2023-02-28T09:28:24;-1.10;99.90
16513;DHT22;8369;48.030;11.598;2023-02-28T09:30:52;-1.10;99.90
16513;DHT22;8369;48.030;11.598;2023-02-28T09:33:20;-1.00;99.90
16513;DHT22;8369;48.030;11.598;2023-02-28T09:35:50;-1.00;99.90
16513;DHT22;8369;48.030;11.598;2023-02-28T09:38:17;-1.00;99.90
16513;DHT22;8369;48.030;11.598;2023-02-28T09:40:52;-1.00;99.90
16513;DHT22;8369;48.030;11.598;2023-02-28T09:43:21;-1.00;99.90
16513;DHT22;8369;48.030;11.598;2023-02-28T09:48:33;-1.00;99.90
16513;DHT22;8369;48.030;11.598;2023-02-28T09:53:47;-1.00;99.90
16513;DHT22;8369;48.030;11.598;2023-02-28T09:56:27;-1.00;99.90
16513;DHT22;8369;48.030;11.598;2023-02-28T09:59:10;-1.00;99.90
16513;DHT22;8369;48.030;11.598;2023-02-28T10:02:04;-0.90;99.90
16513;DHT22;8369;48.030;11.598;2023-02-28T10:04:44;-1.00;99.90
16513;DHT22;8369;48.030;11.598;2023-02-28T10:07:47;-1.00;99.90
16513;DHT22;8369;48.030;11.598;2023-02-28T10:10:23;-1.10;99.90
16513;DHT22;8369;48.030;11.598;2023-02-28T10:12:53;-1.20;99.90
16513;DHT22;8369;48.030;11.598;2023-02-28T10:15:21;-1.20;99.90
16513;DHT22;8369;48.030;11.598;2023-02-28T10:17:53;-1.20;99.90
16513;DHT22;8369;48.030;11.598;2023-02-28T10:20:21;-1.10;99.90
16513;DHT22;8369;48.030;11.598;2023-02-28T10:22:56;-1.10;99.90
16513;DHT22;8369;48.030;11.598;2023-02-28T10:25:26;-1.00;99.90
16513;DHT22;8369;48.030;11.598;2023-02-28T10:28:13;-1.00;99.90
16513;DHT22;8369;48.030;11.598;2023-02-28T10:30:46;-1.00;99.90
16513;DHT22;8369;48.030;11.598;2023-02-28T10:35:49;-0.90;99.90
16513;DHT22;8369;48.030;11.598;2023-02-28T10:38:22;-0.80;99.90
16513;DHT22;8369;48.030;11.598;2023-02-28T10:40:47;-0.80;99.90
16513;DHT22;8369;48.030;11.598;2023-02-28T10:45:39;-0.80;99.90
16513;DHT22;8369;48.030;11.598;2023-02-28T10:58:54;-0.70;99.90
16513;DHT22;8369;48.030;11.598;2023-02-28T11:01:45;-0.70;99.90
16513;DHT22;8369;48.030;11.598;2023-02-28T11:06:59;-0.60;99.90
16513;DHT22;8369;48.030;11.598;2023-02-28T11:09:33;-0.50;99.90
16513;DHT22;8369;48.030;11.598;2023-02-28T11:12:02;-0.50;99.90
16513;DHT22;8369;48.030;11.598;2023-02-28T11:14:31;-0.50;99.90
16513;DHT22;8369;48.030;11.598;2023-02-28T11:17:21;-0.40;99.90
16513;DHT22;8369;48.030;11.598;2023-02-28T11:19:51;-0.40;99.90
16513;DHT22;8369;48.030;11.598;2023-02-28T11:22:20;-0.30;99.90
16513;DHT22;8369;48.030;11.598;2023-02-28T11:24:50;-0.30;99.90
16513;DHT22;8369;48.030;11.598;2023-02-28T11:28:03;-0.20;99.90
16513;DHT22;8369;48.030;11.598;2023-02-28T11:32:57;0.20;99.90
16513;DHT22;8369;48.030;11.598;2023-02-28T11:35:31;0.40;99.90
16513;DHT22;8369;48.030;11.598;2023-02-28T11:38:00;0.60;99.90
16513;DHT22;8369;48.030;11.598;2023-02-28T11:54:08;1.10;99.90
16513;DHT22;8369;48.030;11.598;2023-02-28T11:56:59;1.20;99.90
16513;DHT22;8369;48.030;11.598;2023-02-28T12:00:19;1.30;99.90
16513;DHT22;8369;48.030;11.598;2023-02-28T12:10:48;1.50;99.90
16513;DHT22;8369;48.030;11.598;2023-02-28T12:13:29;1.50;99.90
16513;DHT22;8369;48.030;11.598;2023-02-28T12:22:12;1.70;99.90
16513;DHT22;8369;48.030;11.598;2023-02-28T12:27:34;1.70;99.90
16513;DHT22;8369;48.030;11.598;2023-02-28T12:30:05;1.70;99.90
16513;DHT22;8369;48.030;11.598;2023-02-28T12:32:44;1.70;99.90
16513;DHT22;8369;48.030;11.598;2023-02-28T12:35:16;1.80;99.90
16513;DHT22;8369;48.030;11.598;2023-02-28T12:37:49;1.80;99.90
16513;DHT22;8369;48.030;11.598;2023-02-28T12:40:23;1.80;99.90
16513;DHT22;8369;48.030;11.598;2023-02-28T12:43:04;1.80;99.90
16513;DHT22;8369;48.030;11.598;2023-02-28T12:45:40;1.90;99.90
16513;DHT22;8369;48.030;11.598;2023-02-28T12:48:11;1.80;99.90
16513;DHT22;8369;48.030;11.598;2023-02-28T12:50:40;1.80;99.90
16513;DHT22;8369;48.030;11.598;2023-02-28T12:53:12;1.90;99.90
16513;DHT22;8369;48.030;11.598;2023-02-28T12:58:35;2.00;99.90
16513;DHT22;8369;48.030;11.598;2023-02-28T13:06:59;2.00;99.90
16513;DHT22;8369;48.030;11.598;2023-02-28T13:09:31;2.00;99.90
16513;DHT22;8369;48.030;11.598;2023-02-28T13:11:58;2.10;99.90
16513;DHT22;8369;48.030;11.598;2023-02-28T13:14:29;2.00;99.90
16513;DHT22;8369;48.030;11.598;2023-02-28T13:19:36;2.00;99.90
16513;DHT22;8369;48.030;11.598;2023-02-28T13:22:03;2.00;99.90
16513;DHT22;8369;48.030;11.598;2023-02-28T13:29:42;2.10;99.90
16513;DHT22;8369;48.030;11.598;2023-02-28T13:34:38;2.10;99.90
16513;DHT22;8369;48.030;11.598;2023-02-28T13:39:56;2.00;99.90
16513;DHT22;8369;48.030;11.598;2023-02-28T13:47:40;2.00;99.90
16513;DHT22;8369;48.030;11.598;2023-02-28T13:56:18;2.00;99.90
16513;DHT22;8369;48.030;11.598;2023-02-28T14:04:41;2.10;99.90
16513;DHT22;8369;48.030;11.598;2023-02-28T14:07:13;2.10;99.90
16513;DHT22;8369;48.030;11.598;2023-02-28T14:09:46;2.10;99.90
16513;DHT22;8369;48.030;11.598;2023-02-28T14:15:45;2.10;99.90
16513;DHT22;8369;48.030;11.598;2023-02-28T14:18:21;2.10;99.90
16513;DHT22;8369;48.030;11.598;2023-02-28T14:20:48;2.00;99.90
16513;DHT22;8369;48.030;11.598;2023-02-28T14:29:30;1.90;99.90
16513;DHT22;8369;48.030;11.598;2023-02-28T14:32:35;1.90;99.90
16513;DHT22;8369;48.030;11.598;2023-02-28T14:37:38;2.00;99.90
16513;DHT22;8369;48.030;11.598;2023-02-28T14:40:16;1.90;99.90
16513;DHT22;8369;48.030;11.598;2023-02-28T14:42:57;1.90;99.90
16513;DHT22;8369;48.030;11.598;2023-02-28T14:45:23;1.90;99.90
16513;DHT22;8369;48.030;11.598;2023-02-28T14:47:51;1.90;99.90
16513;DHT22;8369;48.030;11.598;2023-02-28T14:50:20;1.90;99.90
16513;DHT22;8369;48.030;11.598;2023-02-28T14:52:46;1.90;99.90
16513;DHT22;8369;48.030;11.598;2023-02-28T14:55:16;1.90;99.90
16513;DHT22;8369;48.030;11.598;2023-02-28T14:57:59;1.90;99.90
16513;DHT22;8369;48.030;11.598;2023-02-28T15:00:31;1.90;99.90
16513;DHT22;8369;48.030;11.598;2023-02-28T15:02:59;1.90;99.90
16513;DHT22;8369;48.030;11.598;2023-02-28T15:05:34;1.90;99.90
16513;DHT22;8369;48.030;11.598;2023-02-28T15:08:12;1.90;99.90
16513;DHT22;8369;48.030;11.598;2023-02-28T15:10:44;1.90;99.90
16513;DHT22;8369;48.030;11.598;2023-02-28T15:13:13;1.90;99.90
16513;DHT22;8369;48.030;11.598;2023-02-28T15:15:47;1.90;99.90
16513;DHT22;8369;48.030;11.598;2023-02-28T15:18:30;1.80;99.90
16513;DHT22;8369;48.030;11.598;2023-02-28T15:21:08;1.90;99.90
16513;DHT22;8369;48.030;11.598;2023-02-28T15:23:41;1.80;99.90
16513;DHT22;8369;48.030;11.598;2023-02-28T15:26:15;1.80;99.90
16513;DHT22;8369;48.030;11.598;2023-02-28T15:28:43;1.90;99.90
16513;DHT22;8369;48.030;11.598;2023-02-28T15:31:34;1.80;99.90
16513;DHT22;8369;48.030;11.598;2023-02-28T15:34:06;1.80;99.90
16513;DHT22;8369;48.030;11.598;2023-02-28T15:36:38;1.80;99.90
16513;DHT22;8369;48.030;11.598;2023-02-28T15:39:27;1.80;99.90
16513;DHT22;8369;48.030;11.598;2023-02-28T15:42:18;1.80;99.90
16513;DHT22;8369;48.030;11.598;2023-02-28T15:44:45;1.80;99.90
16513;DHT22;8369;48.030;11.598;2023-02-28T15:47:22;1.70;99.90
16513;DHT22;8369;48.030;11.598;2023-02-28T15:49:52;1.70;99.90
16513;DHT22;8369;48.030;11.598;2023-02-28T15:52:23;1.70;99.90
16513;DHT22;8369;48.030;11.598;2023-02-28T15:54:50;1.70;99.90
16513;DHT22;8369;48.030;11.598;2023-02-28T15:57:28;1.60;99.90
16513;DHT22;8369;48.030;11.598;2023-02-28T15:59:58;1.60;99.90
16513;DHT22;8369;48.030;11.598;2023-02-28T16:02:35;1.60;99.90
16513;DHT22;8369;48.030;11.598;2023-02-28T16:07:39;1.50;99.90
16513;DHT22;8369;48.030;11.598;2023-02-28T16:10:07;1.50;99.90
16513;DHT22;8369;48.030;11.598;2023-02-28T16:12:37;1.50;99.90
16513;DHT22;8369;48.030;11.598;2023-02-28T16:15:08;1.40;99.90
16513;DHT22;8369;48.030;11.598;2023-02-28T16:17:38;1.40;99.90
16513;DHT22;8369;48.030;11.598;2023-02-28T16:20:18;1.40;99.90
16513;DHT22;8369;48.030;11.598;2023-02-28T16:22:45;1.40;99.90
16513;DHT22;8369;48.030;11.598;2023-02-28T16:25:16;1.30;99.90
16513;DHT22;8369;48.030;11.598;2023-02-28T16:27:50;1.30;99.90
16513;DHT22;8369;48.030;11.598;2023-02-28T16:30:23;1.30;99.90
16513;DHT22;8369;48.030;11.598;2023-02-28T16:32:51;1.30;99.90
16513;DHT22;8369;48.030;11.598;2023-02-28T16:35:19;1.20;99.90
16513;DHT22;8369;48.030;11.598;2023-02-28T16:37:46;1.20;99.90
16513;DHT22;8369;48.030;11.598;2023-02-28T16:40:24;1.20;99.90
16513;DHT22;8369;48.030;11.598;2023-02-28T16:42:52;1.10;99.90
16513;DHT22;8369;48.030;11.598;2023-02-28T16:45:26;1.10;99.90
16513;DHT22;8369;48.030;11.598;2023-02-28T16:47:52;1.00;99.90
16513;DHT22;8369;48.030;11.598;2023-02-28T16:50:26;1.00;99.90
16513;DHT22;8369;48.030;11.598;2023-02-28T16:52:53;1.00;99.90
16513;DHT22;8369;48.030;11.598;2023-02-28T16:55:24;0.90;99.90
16513;DHT22;8369;48.030;11.598;2023-02-28T16:57:58;0.90;99.90
16513;DHT22;8369;48.030;11.598;2023-02-28T17:00:26;0.90;99.90
16513;DHT22;8369;48.030;11.598;2023-02-28T17:02:53;0.90;99.90
16513;DHT22;8369;48.030;11.598;2023-02-28T17:05:19;0.80;99.90
16513;DHT22;8369;48.030;11.598;2023-02-28T17:07:46;0.80;99.90
16513;DHT22;8369;48.030;11.598;2023-02-28T17:10:24;0.70;99.90
16513;DHT22;8369;48.030;11.598;2023-02-28T17:12:50;0.70;99.90
16513;DHT22;8369;48.030;11.598;2023-02-28T17:15:18;0.70;99.90
16513;DHT22;8369;48.030;11.598;2023-02-28T17:17:46;0.60;99.90
16513;DHT22;8369;48.030;11.598;2023-02-28T17:20:14;0.50;99.90
16513;DHT22;8369;48.030;11.598;2023-02-28T17:22:41;0.50;99.90
16513;DHT22;8369;48.030;11.598;2023-02-28T17:25:08;0.50;99.90
16513;DHT22;8369;48.030;11.598;2023-02-28T17:27:35;0.40;99.90
16513;DHT22;8369;48.030;11.598;2023-02-28T17:30:13;0.40;99.90
16513;DHT22;8369;48.030;11.598;2023-02-28T17:32:39;0.40;99.90
16513;DHT22;8369;48.030;11.598;2023-02-28T17:35:06;0.40;99.90
16513;DHT22;8369;48.030;11.598;2023-02-28T17:37:33;0.30;99.90
16513;DHT22;8369;48.030;11.598;2023-02-28T17:39:59;0.30;99.90
16513;DHT22;8369;48.030;11.598;2023-02-28T17:42:26;0.20;99.90
16513;DHT22;8369;48.030;11.598;2023-02-28T17:44:52;0.20;99.90
16513;DHT22;8369;48.030;11.598;2023-02-28T17:47:18;0.20;99.90
16513;DHT22;8369;48.030;11.598;2023-02-28T17:49:44;0.20;99.90
16513;DHT22;8369;48.030;11.598;2023-02-28T17:52:11;0.20;99.90
16513;DHT22;8369;48.030;11.598;2023-02-28T17:54:37;0.20;99.90
16513;DHT22;8369;48.030;11.598;2023-02-28T17:57:03;0.10;99.90
16513;DHT22;8369;48.030;11.598;2023-02-28T17:59:30;0.10;99.90
16513;DHT22;8369;48.030;11.598;2023-02-28T18:02:00;0.10;99.90
16513;DHT22;8369;48.030;11.598;2023-02-28T18:04:26;0.10;99.90
16513;DHT22;8369;48.030;11.598;2023-02-28T18:06:52;0.10;99.90
16513;DHT22;8369;48.030;11.598;2023-02-28T18:09:21;0.20;99.90
16513;DHT22;8369;48.030;11.598;2023-02-28T18:11:49;0.20;99.90
16513;DHT22;8369;48.030;11.598;2023-02-28T18:14:16;0.20;99.90